Time;durP1;ratioP1;P1;durP2;ratioP2;P2;SDS_P1;SDS_P2;PMS_P1;PMS_P2;Temp;Humidity;BMP_temperature;BMP_pressure;BME280_temperature;BME280_humidity;BME280_pressure;Samples;Min_cycle;Max_cycle;Signal;HPM_P1;HPM_P2
2022/12/25 00:02:20;;;;;;;0.20;0.10;;;;;;;;;;5064085;28;20068;-84
2022/12/25 00:04:46;;;;;;;0.20;0.10;;;;;;;;;;5062168;28;20037;-84
2022/12/25 00:07:12;;;;;;;0.20;0.10;;;;;;;;;;5061542;28;20122;-85
2022/12/25 00:09:38;;;;;;;0.20;0.10;;;;;;;;;;5039461;28;20041;-85
2022/12/25 00:12:04;;;;;;;0.20;0.10;;;;;;;;;;5059409;28;20044;-84
2022/12/25 00:14:30;;;;;;;0.20;0.10;;;;;;;;;;5066098;28;20067;-84
2022/12/25 00:16:56;;;;;;;0.20;0.10;;;;;;;;;;5060861;28;20036;-84
2022/12/25 00:19:22;;;;;;;0.80;0.20;;;;;;;;;;5060516;28;21284;-85
2022/12/25 00:21:48;;;;;;;0.30;0.30;;;;;;;;;;5046254;28;20045;-84
2022/12/25 00:24:14;;;;;;;0.38;0.20;;;;;;;;;;5043034;28;20596;-84
2022/12/25 00:26:40;;;;;;;0.20;0.10;;;;;;;;;;5062936;28;20037;-83
2022/12/25 00:29:06;;;;;;;0.20;0.10;;;;;;;;;;5058681;28;20048;-83
2022/12/25 00:31:33;;;;;;;0.20;0.10;;;;;;;;;;5042228;28;20049;-83
2022/12/25 00:33:59;;;;;;;0.20;0.10;;;;;;;;;;5043934;28;20037;-83
2022/12/25 00:36:25;;;;;;;0.20;0.17;;;;;;;;;;5061744;28;20363;-83
2022/12/25 00:38:51;;;;;;;0.20;0.10;;;;;;;;;;5061012;28;20498;-84
2022/12/25 00:44:05;;;;;;;1.10;0.30;;;;;;;;;;5023724;28;20044;-83
2022/12/25 00:46:31;;;;;;;0.20;0.10;;;;;;;;;;5056013;28;20429;-84
2022/12/25 00:49:00;;;;;;;0.28;0.20;;;;;;;;;;5041858;28;20071;-84
2022/12/25 00:51:27;;;;;;;0.20;0.10;;;;;;;;;;5035756;28;20048;-83
2022/12/25 00:53:52;;;;;;;0.20;0.10;;;;;;;;;;5058948;28;20044;-83
2022/12/25 00:56:19;;;;;;;0.20;0.10;;;;;;;;;;5053121;28;20041;-84
2022/12/25 00:58:45;;;;;;;0.20;0.10;;;;;;;;;;5063372;28;20414;-83
2022/12/25 01:01:11;;;;;;;0.20;0.10;;;;;;;;;;5063577;28;20040;-83
2022/12/25 01:03:37;;;;;;;0.20;0.20;;;;;;;;;;5040765;28;20036;-83
2022/12/25 01:06:05;;;;;;;0.20;0.10;;;;;;;;;;5059876;28;20048;-84
2022/12/25 01:08:32;;;;;;;0.82;0.82;;;;;;;;;;5043705;28;20036;-83
2022/12/25 01:11:00;;;;;;;0.20;0.10;;;;;;;;;;5044021;28;20041;-84
2022/12/25 01:13:26;;;;;;;0.20;0.20;;;;;;;;;;5041642;28;20080;-84
2022/12/25 01:15:53;;;;;;;0.20;0.10;;;;;;;;;;5040493;28;20044;-84
2022/12/25 01:18:19;;;;;;;0.20;0.10;;;;;;;;;;5045628;28;20098;-84
2022/12/25 01:20:45;;;;;;;0.20;0.10;;;;;;;;;;5041931;28;20037;-84
2022/12/25 01:23:11;;;;;;;0.20;0.10;;;;;;;;;;5057971;28;20388;-83
2022/12/25 01:25:37;;;;;;;0.20;0.10;;;;;;;;;;5044441;28;20487;-84
2022/12/25 01:28:04;;;;;;;0.30;0.17;;;;;;;;;;5043989;28;20041;-83
2022/12/25 01:30:30;;;;;;;0.20;0.20;;;;;;;;;;5073469;28;20033;-84
2022/12/25 01:32:56;;;;;;;0.20;0.10;;;;;;;;;;5041372;28;20631;-84
2022/12/25 01:35:23;;;;;;;0.20;0.10;;;;;;;;;;5060642;28;20045;-83
2022/12/25 01:37:49;;;;;;;0.20;0.10;;;;;;;;;;5061291;28;20527;-84
2022/12/25 01:40:15;;;;;;;0.30;0.30;;;;;;;;;;5048821;28;20044;-83
2022/12/25 01:42:42;;;;;;;0.20;0.10;;;;;;;;;;5046519;28;20041;-83
2022/12/25 01:45:26;;;;;;;0.20;0.10;;;;;;;;;;5047555;28;20035;-83
2022/12/25 01:47:52;;;;;;;0.20;0.10;;;;;;;;;;5047944;28;20056;-82
2022/12/25 01:50:18;;;;;;;0.20;0.10;;;;;;;;;;5045520;28;20499;-84
2022/12/25 01:52:45;;;;;;;0.20;0.10;;;;;;;;;;5040623;28;20098;-83
2022/12/25 01:55:11;;;;;;;0.20;0.10;;;;;;;;;;5059038;28;20138;-84
2022/12/25 01:57:38;;;;;;;0.20;0.10;;;;;;;;;;5044584;28;20036;-84
2022/12/25 02:00:05;;;;;;;0.20;0.10;;;;;;;;;;5059046;28;20037;-84
2022/12/25 02:02:31;;;;;;;0.20;0.10;;;;;;;;;;5058867;28;20243;-84
2022/12/25 02:05:07;;;;;;;0.20;0.10;;;;;;;;;;5045932;28;20444;-84
2022/12/25 02:07:35;;;;;;;0.20;0.10;;;;;;;;;;5053688;28;20036;-83
2022/12/25 02:10:01;;;;;;;0.20;0.10;;;;;;;;;;5060525;28;20032;-84
2022/12/25 02:12:28;;;;;;;0.20;0.10;;;;;;;;;;5036182;28;20043;-82
2022/12/25 02:14:56;;;;;;;0.20;0.10;;;;;;;;;;5045215;28;20040;-83
2022/12/25 02:17:37;;;;;;;0.20;0.10;;;;;;;;;;5042450;28;20124;-82
2022/12/25 02:20:03;;;;;;;0.20;0.10;;;;;;;;;;5057920;28;20128;-84
2022/12/25 02:22:49;;;;;;;0.20;0.10;;;;;;;;;;5062323;28;20123;-85
2022/12/25 02:25:22;;;;;;;0.20;0.10;;;;;;;;;;5043252;28;21029;-83
2022/12/25 02:27:59;;;;;;;0.20;0.10;;;;;;;;;;5043635;28;20506;-83
2022/12/25 02:30:25;;;;;;;0.20;0.10;;;;;;;;;;5046452;28;20036;-84
2022/12/25 02:34:01;;;;;;;0.20;0.10;;;;;;;;;;5042585;28;20558;-83
2022/12/25 02:35:40;;;;;;;0.20;0.10;;;;;;;;;;5063538;28;20822;-84
2022/12/25 02:38:10;;;;;;;0.20;0.10;;;;;;;;;;5049045;28;20119;-85
2022/12/25 02:40:40;;;;;;;0.20;0.10;;;;;;;;;;5041655;28;20037;-83
2022/12/25 03:08:15;;;;;;;0.20;0.10;;;;;;;;;;5057934;28;20044;-83
2022/12/25 03:13:35;;;;;;;0.20;0.10;;;;;;;;;;5062470;28;20040;-85
2022/12/25 03:18:46;;;;;;;0.20;0.10;;;;;;;;;;5063513;28;20063;-83
2022/12/25 03:26:54;;;;;;;0.20;0.10;;;;;;;;;;5068408;28;20041;-83
2022/12/25 03:32:11;;;;;;;0.20;0.10;;;;;;;;;;5068792;28;20044;-84
2022/12/25 04:36:49;;;;;;;0.20;0.10;;;;;;;;;;5067893;28;20132;-83
2022/12/25 04:39:15;;;;;;;0.20;0.10;;;;;;;;;;5056590;28;20628;-84
2022/12/25 04:41:41;;;;;;;0.20;0.10;;;;;;;;;;5048978;28;20033;-84
2022/12/25 04:44:08;;;;;;;0.20;0.10;;;;;;;;;;5051752;28;20170;-83
2022/12/25 04:46:34;;;;;;;0.20;0.10;;;;;;;;;;5047778;28;20115;-83
2022/12/25 04:49:00;;;;;;;0.20;0.10;;;;;;;;;;5064645;28;20117;-85
2022/12/25 04:51:26;;;;;;;0.20;0.10;;;;;;;;;;5042912;28;20044;-83
2022/12/25 04:53:55;;;;;;;0.20;0.10;;;;;;;;;;5064136;28;20047;-83
2022/12/25 04:56:22;;;;;;;0.20;0.10;;;;;;;;;;5057092;28;20048;-83
2022/12/25 04:58:48;;;;;;;0.20;0.00;;;;;;;;;;5047837;28;21391;-83
2022/12/25 05:01:14;;;;;;;0.20;0.10;;;;;;;;;;5067483;28;20040;-82
2022/12/25 05:03:40;;;;;;;0.20;0.10;;;;;;;;;;5067390;28;20040;-84
2022/12/25 05:06:06;;;;;;;0.20;0.10;;;;;;;;;;5082462;22;20048;-85
2022/12/25 05:08:33;;;;;;;0.20;0.10;;;;;;;;;;5046636;28;20051;-86
2022/12/25 05:10:59;;;;;;;0.20;0.10;;;;;;;;;;5047147;28;20078;-85
2022/12/25 05:13:25;;;;;;;0.20;0.10;;;;;;;;;;5055781;28;20049;-85
2022/12/25 05:15:51;;;;;;;0.20;0.10;;;;;;;;;;5050668;28;20499;-84
2022/12/25 05:18:17;;;;;;;0.20;0.00;;;;;;;;;;5059912;28;20044;-84
2022/12/25 05:20:50;;;;;;;0.20;0.10;;;;;;;;;;5057793;28;20043;-84
2022/12/25 05:23:16;;;;;;;0.20;0.10;;;;;;;;;;5058773;28;20064;-84
2022/12/25 05:25:45;;;;;;;0.20;0.10;;;;;;;;;;5054664;28;20056;-85
2022/12/25 05:28:11;;;;;;;0.20;0.10;;;;;;;;;;5036318;28;20070;-84
2022/12/25 05:30:37;;;;;;;0.20;0.10;;;;;;;;;;5045011;28;20033;-84
2022/12/25 05:33:03;;;;;;;0.20;0.10;;;;;;;;;;5040643;28;20095;-84
2022/12/25 05:35:29;;;;;;;0.20;0.10;;;;;;;;;;5058072;28;20045;-83
2022/12/25 05:37:58;;;;;;;0.30;0.20;;;;;;;;;;5035024;28;20123;-85
2022/12/25 05:40:24;;;;;;;0.20;0.10;;;;;;;;;;5036162;28;20116;-85
2022/12/25 05:42:53;;;;;;;0.20;0.10;;;;;;;;;;5058880;28;20041;-83
2022/12/25 05:45:19;;;;;;;0.30;0.20;;;;;;;;;;5058944;28;20035;-86
2022/12/25 05:47:45;;;;;;;0.20;0.10;;;;;;;;;;5037921;28;20036;-85
2022/12/25 05:50:11;;;;;;;0.20;0.10;;;;;;;;;;5058572;28;20044;-85
2022/12/25 05:52:37;;;;;;;0.20;0.10;;;;;;;;;;5057436;28;20047;-86
2022/12/25 05:55:03;;;;;;;0.20;0.10;;;;;;;;;;5037798;28;20053;-84
2022/12/25 05:57:30;;;;;;;0.20;0.20;;;;;;;;;;5060316;28;20037;-87
2022/12/25 05:59:56;;;;;;;0.20;0.10;;;;;;;;;;5044746;28;20262;-85
2022/12/25 06:02:22;;;;;;;2.45;1.20;;;;;;;;;;5038560;28;20029;-85
2022/12/25 06:04:48;;;;;;;0.20;0.10;;;;;;;;;;5052382;28;20045;-86
2022/12/25 06:07:14;;;;;;;0.20;0.10;;;;;;;;;;5053213;28;20033;-85
2022/12/25 06:09:40;;;;;;;0.20;0.10;;;;;;;;;;5038507;28;20510;-85
2022/12/25 06:12:06;;;;;;;0.20;0.10;;;;;;;;;;5062426;28;20572;-84
2022/12/25 06:14:32;;;;;;;0.20;0.10;;;;;;;;;;5057219;28;20040;-84
2022/12/25 06:16:58;;;;;;;0.20;0.10;;;;;;;;;;5032280;28;20155;-85
2022/12/25 06:19:24;;;;;;;0.52;0.52;;;;;;;;;;5058376;28;20116;-84
2022/12/25 06:21:56;;;;;;;0.95;0.25;;;;;;;;;;5060078;28;20111;-85
2022/12/25 06:24:23;;;;;;;0.20;0.10;;;;;;;;;;5056988;28;20078;-85
2022/12/25 06:26:49;;;;;;;0.20;0.17;;;;;;;;;;5058124;28;20043;-85
2022/12/25 06:29:15;;;;;;;0.65;0.43;;;;;;;;;;5048281;28;20068;-84
2022/12/25 06:31:41;;;;;;;0.20;0.20;;;;;;;;;;5041953;28;20093;-84
2022/12/25 06:34:07;;;;;;;0.20;0.10;;;;;;;;;;5037937;28;20487;-84
2022/12/25 06:36:33;;;;;;;0.20;0.10;;;;;;;;;;5057769;28;20068;-85
2022/12/25 06:39:00;;;;;;;0.20;0.20;;;;;;;;;;5037743;28;20040;-85
2022/12/25 06:41:27;;;;;;;0.20;0.13;;;;;;;;;;5037529;28;20043;-84
2022/12/25 06:43:57;;;;;;;0.20;0.10;;;;;;;;;;5062117;28;20044;-85
2022/12/25 06:46:24;;;;;;;0.20;0.10;;;;;;;;;;5051775;28;20044;-84
2022/12/25 06:48:51;;;;;;;0.20;0.10;;;;;;;;;;5058205;28;20041;-84
2022/12/25 06:51:18;;;;;;;0.20;0.10;;;;;;;;;;5033578;28;20094;-84
2022/12/25 06:53:46;;;;;;;0.40;0.17;;;;;;;;;;5059671;28;20423;-84
2022/12/25 06:56:22;;;;;;;0.20;0.10;;;;;;;;;;5063558;28;20127;-85
2022/12/25 06:59:00;;;;;;;0.20;0.10;;;;;;;;;;5034030;28;20041;-84
2022/12/25 07:01:56;;;;;;;0.20;0.10;;;;;;;;;;5056501;28;20039;-86
2022/12/25 07:04:22;;;;;;;0.20;0.10;;;;;;;;;;5057640;28;20040;-83
2022/12/25 07:06:51;;;;;;;0.20;0.08;;;;;;;;;;5034398;28;20033;-85
2022/12/25 07:09:23;;;;;;;0.20;0.10;;;;;;;;;;5044131;28;20036;-84
2022/12/25 07:11:49;;;;;;;0.20;0.10;;;;;;;;;;5033708;28;20127;-84
2022/12/25 07:14:26;;;;;;;0.20;0.10;;;;;;;;;;5036428;28;20115;-85
2022/12/25 07:17:06;;;;;;;0.20;0.10;;;;;;;;;;5037443;28;20487;-86
2022/12/25 07:26:06;;;;;;;0.20;0.10;;;;;;;;;;5010145;28;20052;-86
2022/12/25 07:32:13;;;;;;;;;;;;;;;;;;;;;
2022/12/25 07:34:44;;;;;;;0.32;0.32;;;;;;;;;;5054951;28;20044;-85
2022/12/25 07:37:42;;;;;;;0.20;0.10;;;;;;;;;;5054990;28;20033;-85
2022/12/25 07:40:46;;;;;;;0.20;0.10;;;;;;;;;;5037950;28;20075;-85
2022/12/25 07:43:19;;;;;;;0.20;0.10;;;;;;;;;;5024030;28;20041;-84
2022/12/25 07:45:48;;;;;;;0.20;0.10;;;;;;;;;;5056943;28;20094;-85
2022/12/25 07:48:17;;;;;;;0.20;0.10;;;;;;;;;;5060987;28;20044;-84
2022/12/25 07:50:46;;;;;;;0.20;0.10;;;;;;;;;;5052456;28;20036;-85
2022/12/25 07:53:33;;;;;;;0.20;0.10;;;;;;;;;;5039730;28;20087;-86
2022/12/25 07:56:06;;;;;;;0.20;0.10;;;;;;;;;;5061867;28;20086;-85
2022/12/25 07:58:40;;;;;;;0.20;0.10;;;;;;;;;;5041437;28;20043;-85
2022/12/25 08:01:11;;;;;;;0.20;0.10;;;;;;;;;;5043831;28;20056;-87
2022/12/25 08:03:37;;;;;;;0.20;0.10;;;;;;;;;;5062338;28;20033;-84
2022/12/25 08:06:05;;;;;;;0.20;0.10;;;;;;;;;;5046277;28;20041;-84
2022/12/25 08:08:31;;;;;;;0.20;0.10;;;;;;;;;;5056258;28;20075;-84
2022/12/25 08:10:57;;;;;;;0.20;0.10;;;;;;;;;;5055863;28;20072;-84
2022/12/25 08:13:23;;;;;;;0.40;0.30;;;;;;;;;;5062614;28;20059;-83
2022/12/25 08:15:49;;;;;;;0.20;0.10;;;;;;;;;;5060549;28;20043;-86
2022/12/25 08:18:15;;;;;;;0.20;0.10;;;;;;;;;;5040094;28;20047;-86
2022/12/25 08:21:07;;;;;;;0.20;0.10;;;;;;;;;;5062808;28;20036;-84
2022/12/25 08:23:34;;;;;;;0.20;0.10;;;;;;;;;;5058127;28;20084;-86
2022/12/25 08:26:22;;;;;;;0.30;0.30;;;;;;;;;;5034757;28;20037;-86
2022/12/25 08:29:01;;;;;;;0.20;0.10;;;;;;;;;;5052781;28;20040;-85
2022/12/25 08:31:32;;;;;;;0.20;0.10;;;;;;;;;;5058162;28;20411;-87
2022/12/25 08:34:21;;;;;;;0.20;0.10;;;;;;;;;;5048281;28;20097;-85
2022/12/25 08:37:11;;;;;;;0.20;0.10;;;;;;;;;;5035236;28;20044;-86
2022/12/25 08:39:38;;;;;;;0.20;0.10;;;;;;;;;;5057918;28;20036;-83
2022/12/25 08:54:11;;;;;;;0.20;0.10;;;;;;;;;;5042579;28;20059;-85
2022/12/25 08:56:42;;;;;;;0.20;0.10;;;;;;;;;;5045364;28;20036;-85
2022/12/25 08:59:41;;;;;;;0.20;0.10;;;;;;;;;;5041544;28;20764;-86
2022/12/25 09:04:39;;;;;;;0.20;0.10;;;;;;;;;;5060638;28;20127;-82
2022/12/25 09:07:05;;;;;;;0.20;0.10;;;;;;;;;;5042806;28;20123;-82
2022/12/25 09:09:31;;;;;;;0.20;0.10;;;;;;;;;;5061964;28;20032;-83
2022/12/25 09:11:57;;;;;;;0.20;0.10;;;;;;;;;;5030475;28;20041;-83
2022/12/25 09:14:23;;;;;;;0.20;0.10;;;;;;;;;;5040830;28;20044;-83
2022/12/25 09:16:50;;;;;;;0.20;0.10;;;;;;;;;;5020828;28;20062;-82
2022/12/25 09:19:16;;;;;;;0.20;0.10;;;;;;;;;;5040838;28;20040;-83
2022/12/25 09:21:42;;;;;;;0.20;0.10;;;;;;;;;;5040396;28;20036;-83
2022/12/25 09:24:09;;;;;;;0.20;0.10;;;;;;;;;;5025957;28;20048;-82
2022/12/25 09:26:36;;;;;;;0.20;0.10;;;;;;;;;;5023239;28;20048;-83
2022/12/25 09:29:02;;;;;;;0.20;0.10;;;;;;;;;;5058818;28;20045;-83
2022/12/25 09:31:29;;;;;;;0.20;0.10;;;;;;;;;;5041193;28;20041;-83
2022/12/25 09:33:56;;;;;;;0.20;0.10;;;;;;;;;;5043228;28;20041;-83
2022/12/25 09:36:22;;;;;;;0.20;0.10;;;;;;;;;;5028948;28;20036;-83
2022/12/25 09:38:48;;;;;;;0.20;0.10;;;;;;;;;;5044581;28;20044;-83
2022/12/25 09:41:17;;;;;;;0.20;0.10;;;;;;;;;;5043189;28;20059;-83
2022/12/25 09:43:49;;;;;;;0.20;0.10;;;;;;;;;;5043184;28;20043;-83
2022/12/25 09:46:18;;;;;;;0.20;0.10;;;;;;;;;;5028727;28;20267;-83
2022/12/25 09:48:52;;;;;;;0.20;0.10;;;;;;;;;;5022735;28;20155;-84
2022/12/25 09:51:18;;;;;;;0.20;0.10;;;;;;;;;;5042356;28;20056;-84
2022/12/25 09:53:47;;;;;;;0.20;0.10;;;;;;;;;;5037827;28;20052;-83
2022/12/25 09:56:16;;;;;;;0.20;0.10;;;;;;;;;;5040976;28;20044;-83
2022/12/25 09:58:42;;;;;;;0.20;0.10;;;;;;;;;;5059410;28;20127;-84
2022/12/25 10:01:11;;;;;;;0.20;0.10;;;;;;;;;;5025108;28;20041;-83
2022/12/25 10:03:50;;;;;;;0.20;0.10;;;;;;;;;;5059271;28;20119;-84
2022/12/25 10:06:20;;;;;;;0.20;0.10;;;;;;;;;;5043208;28;20041;-84
2022/12/25 10:08:58;;;;;;;0.20;0.10;;;;;;;;;;5041500;28;20047;-83
2022/12/25 10:11:27;;;;;;;0.20;0.10;;;;;;;;;;5028210;28;20040;-82
2022/12/25 10:14:04;;;;;;;0.20;0.10;;;;;;;;;;5063448;28;20524;-83
2022/12/25 10:16:30;;;;;;;0.20;0.10;;;;;;;;;;5027447;28;20524;-83
2022/12/25 10:19:02;;;;;;;0.20;0.10;;;;;;;;;;5024863;28;20037;-83
2022/12/25 10:21:28;;;;;;;0.20;0.10;;;;;;;;;;5042798;28;20167;-83
2022/12/25 10:24:16;;;;;;;0.20;0.10;;;;;;;;;;5039689;28;20064;-84
2022/12/25 10:26:42;;;;;;;0.20;0.10;;;;;;;;;;5045965;28;20105;-84
2022/12/25 10:29:12;;;;;;;0.20;0.10;;;;;;;;;;5027123;28;20043;-84
2022/12/25 10:31:38;;;;;;;0.20;0.10;;;;;;;;;;5025982;28;20047;-84
2022/12/25 10:34:05;;;;;;;0.20;0.10;;;;;;;;;;5025549;28;20115;-83
2022/12/25 10:36:32;;;;;;;0.20;0.10;;;;;;;;;;5029146;28;20525;-83
2022/12/25 10:38:58;;;;;;;0.20;0.10;;;;;;;;;;5032092;28;20043;-84
2022/12/25 10:41:53;;;;;;;0.20;0.10;;;;;;;;;;5046984;28;20045;-84
2022/12/25 10:44:23;;;;;;;0.20;0.10;;;;;;;;;;4976529;28;20043;-84
2022/12/25 10:46:54;;;;;;;0.20;0.10;;;;;;;;;;5026666;28;20376;-83
2022/12/25 10:49:22;;;;;;;0.20;0.10;;;;;;;;;;5025711;28;20053;-83
2022/12/25 10:51:48;;;;;;;0.20;0.10;;;;;;;;;;5040248;28;20044;-85
2022/12/25 10:54:26;;;;;;;0.20;0.10;;;;;;;;;;5026387;28;20053;-85
2022/12/25 10:56:52;;;;;;;0.20;0.10;;;;;;;;;;5026214;28;20079;-83
2022/12/25 10:59:18;;;;;;;0.20;0.10;;;;;;;;;;5023701;28;20063;-85
2022/12/25 11:01:44;;;;;;;0.20;0.10;;;;;;;;;;5022612;28;20138;-84
2022/12/25 11:04:18;;;;;;;0.20;0.10;;;;;;;;;;5060177;28;20045;-84
2022/12/25 11:06:54;;;;;;;0.20;0.15;;;;;;;;;;5026803;28;20088;-84
2022/12/25 11:09:20;;;;;;;0.20;0.10;;;;;;;;;;5053729;28;20048;-84
2022/12/25 11:11:46;;;;;;;0.20;0.10;;;;;;;;;;5045965;28;20052;-85
2022/12/25 11:14:19;;;;;;;0.20;0.10;;;;;;;;;;5034678;28;20509;-84
2022/12/25 11:16:45;;;;;;;0.20;0.10;;;;;;;;;;5051188;28;20044;-85
2022/12/25 11:19:31;;;;;;;0.20;0.10;;;;;;;;;;5064958;28;20110;-86
2022/12/25 11:21:58;;;;;;;0.20;0.10;;;;;;;;;;5034010;28;20048;-85
2022/12/25 11:24:32;;;;;;;0.20;0.10;;;;;;;;;;5027189;28;20464;-84
2022/12/25 11:26:59;;;;;;;0.20;0.10;;;;;;;;;;5024605;28;20036;-86
2022/12/25 11:29:26;;;;;;;0.20;0.10;;;;;;;;;;5062888;28;20275;-86
2022/12/25 11:31:53;;;;;;;0.20;0.10;;;;;;;;;;5028445;28;20047;-85
2022/12/25 11:34:29;;;;;;;0.20;0.10;;;;;;;;;;5044754;28;20045;-84
2022/12/25 11:36:57;;;;;;;0.30;0.20;;;;;;;;;;5026580;28;20058;-84
2022/12/25 11:39:23;;;;;;;0.20;0.10;;;;;;;;;;5033482;28;20518;-84
2022/12/25 11:41:50;;;;;;;0.20;0.10;;;;;;;;;;5045973;28;20041;-83
2022/12/25 11:44:40;;;;;;;0.20;0.10;;;;;;;;;;5045007;28;20059;-84
2022/12/25 11:47:11;;;;;;;0.20;0.10;;;;;;;;;;5026450;28;20036;-84
2022/12/25 11:49:41;;;;;;;0.20;0.10;;;;;;;;;;5028061;28;20086;-84
2022/12/25 11:52:10;;;;;;;0.20;0.10;;;;;;;;;;5044179;28;20032;-84
2022/12/25 11:54:42;;;;;;;0.20;0.00;;;;;;;;;;5030171;28;20052;-83
2022/12/25 11:57:10;;;;;;;0.20;0.20;;;;;;;;;;5038346;28;20292;-84
2022/12/25 11:59:51;;;;;;;0.20;0.10;;;;;;;;;;5026143;28;20106;-84
2022/12/25 12:02:36;;;;;;;0.20;0.10;;;;;;;;;;5043732;28;20036;-85
2022/12/25 12:05:24;;;;;;;0.20;0.10;;;;;;;;;;5044666;28;20040;-83
2022/12/25 12:07:52;;;;;;;0.20;0.10;;;;;;;;;;5043338;28;20462;-85
2022/12/25 12:10:24;;;;;;;0.20;0.10;;;;;;;;;;5029910;28;20060;-84
2022/12/25 12:12:54;;;;;;;0.20;0.10;;;;;;;;;;5026474;28;20348;-84
2022/12/25 12:15:28;;;;;;;0.20;0.10;;;;;;;;;;5029367;28;20048;-85
2022/12/25 12:17:54;;;;;;;0.20;0.10;;;;;;;;;;5021057;28;20048;-85
2022/12/25 12:20:23;;;;;;;0.20;0.10;;;;;;;;;;5020408;28;20047;-85
2022/12/25 12:22:50;;;;;;;0.20;0.10;;;;;;;;;;5025363;28;20036;-84
2022/12/25 12:25:17;;;;;;;0.20;0.10;;;;;;;;;;5024742;28;20048;-85
2022/12/25 12:27:43;;;;;;;0.20;0.00;;;;;;;;;;5042422;28;20062;-85
2022/12/25 12:30:28;;;;;;;0.20;0.10;;;;;;;;;;5041853;28;20037;-84
2022/12/25 12:32:57;;;;;;;0.20;0.10;;;;;;;;;;5045442;28;20045;-85
2022/12/25 12:35:23;;;;;;;0.20;0.10;;;;;;;;;;5030537;28;20048;-85
2022/12/25 12:37:54;;;;;;;0.20;0.10;;;;;;;;;;5046524;28;20056;-84
2022/12/25 12:40:23;;;;;;;0.20;0.10;;;;;;;;;;5029295;28;20173;-85
2022/12/25 12:42:56;;;;;;;0.20;0.10;;;;;;;;;;5045545;28;20043;-85
2022/12/25 12:45:28;;;;;;;0.20;0.10;;;;;;;;;;5046273;28;20029;-84
2022/12/25 12:47:54;;;;;;;0.20;0.10;;;;;;;;;;5061088;28;20464;-85
2022/12/25 12:50:28;;;;;;;0.20;0.10;;;;;;;;;;5027662;28;20090;-85
2022/12/25 12:52:55;;;;;;;0.20;0.10;;;;;;;;;;5027419;28;20093;-85
2022/12/25 12:55:28;;;;;;;0.20;0.10;;;;;;;;;;5046725;28;20406;-84
2022/12/25 12:57:59;;;;;;;0.25;0.20;;;;;;;;;;5030750;28;20055;-85
2022/12/25 13:00:32;;;;;;;0.20;0.10;;;;;;;;;;5030967;28;20512;-85
2022/12/25 13:03:04;;;;;;;0.20;0.10;;;;;;;;;;5056642;28;20044;-85
2022/12/25 13:05:36;;;;;;;0.20;0.10;;;;;;;;;;5042050;28;20040;-85
2022/12/25 13:08:11;;;;;;;0.20;0.10;;;;;;;;;;5042198;28;20286;-84
2022/12/25 13:10:38;;;;;;;0.20;0.10;;;;;;;;;;5041449;28;20403;-83
2022/12/25 13:13:06;;;;;;;0.20;0.10;;;;;;;;;;5036031;28;20092;-83
2022/12/25 13:15:33;;;;;;;0.20;0.10;;;;;;;;;;5030154;28;20538;-83
2022/12/25 13:18:11;;;;;;;0.20;0.10;;;;;;;;;;5042715;28;20570;-84
2022/12/25 13:20:56;;;;;;;0.20;0.10;;;;;;;;;;5024982;28;20089;-83
2022/12/25 13:23:22;;;;;;;0.20;0.10;;;;;;;;;;5025507;28;20037;-83
2022/12/25 13:25:55;;;;;;;0.20;0.10;;;;;;;;;;5020640;28;20652;-83
2022/12/25 13:28:26;;;;;;;0.20;0.10;;;;;;;;;;5017865;28;20036;-85
2022/12/25 13:30:52;;;;;;;0.20;0.10;;;;;;;;;;5061178;28;20062;-84
2022/12/25 13:33:19;;;;;;;0.20;0.10;;;;;;;;;;5029364;28;20039;-84
2022/12/25 13:35:48;;;;;;;0.20;0.10;;;;;;;;;;5025071;28;20055;-83
2022/12/25 13:38:15;;;;;;;0.20;0.10;;;;;;;;;;5041861;28;20041;-84
2022/12/25 13:42:04;;;;;;;0.20;0.10;;;;;;;;;;5046832;28;20123;-85
2022/12/25 13:43:35;;;;;;;0.20;0.10;;;;;;;;;;5064998;28;20189;-84
2022/12/25 13:46:04;;;;;;;0.20;0.10;;;;;;;;;;5046001;28;20032;-84
2022/12/25 13:48:30;;;;;;;0.20;0.10;;;;;;;;;;5044669;28;20036;-83
2022/12/25 13:50:57;;;;;;;0.20;0.10;;;;;;;;;;5041968;28;20105;-84
2022/12/25 13:53:23;;;;;;;0.20;0.10;;;;;;;;;;5039087;28;20402;-83
2022/12/25 13:55:53;;;;;;;0.20;0.10;;;;;;;;;;5028891;28;20048;-84
2022/12/25 13:58:28;;;;;;;0.20;0.10;;;;;;;;;;5043867;28;20356;-83
2022/12/25 14:00:58;;;;;;;0.20;0.10;;;;;;;;;;5018132;28;20044;-84
2022/12/25 14:03:36;;;;;;;0.20;0.10;;;;;;;;;;5028028;28;20411;-84
2022/12/25 14:06:03;;;;;;;0.20;0.10;;;;;;;;;;5059007;28;20036;-83
2022/12/25 14:08:31;;;;;;;0.20;0.10;;;;;;;;;;5043288;28;20032;-84
2022/12/25 14:10:57;;;;;;;0.20;0.10;;;;;;;;;;5020965;28;20213;-83
2022/12/25 14:13:26;;;;;;;0.20;0.10;;;;;;;;;;5045924;28;20047;-83
2022/12/25 14:15:52;;;;;;;0.20;0.10;;;;;;;;;;5042350;28;20574;-83
2022/12/25 14:18:20;;;;;;;0.20;0.10;;;;;;;;;;5025415;28;20078;-83
2022/12/25 14:21:06;;;;;;;0.20;0.00;;;;;;;;;;5025449;28;20043;-84
2022/12/25 14:23:43;;;;;;;0.20;0.10;;;;;;;;;;5042324;28;20124;-83
2022/12/25 14:26:16;;;;;;;0.20;0.10;;;;;;;;;;5046899;28;20040;-83
2022/12/25 14:28:45;;;;;;;0.20;0.10;;;;;;;;;;5041417;28;20393;-84
2022/12/25 14:31:11;;;;;;;0.20;0.10;;;;;;;;;;5060991;28;20072;-83
2022/12/25 14:33:38;;;;;;;0.20;0.10;;;;;;;;;;5027969;28;20052;-84
2022/12/25 14:36:05;;;;;;;0.20;0.03;;;;;;;;;;5043455;28;20056;-83
2022/12/25 14:38:35;;;;;;;0.20;0.10;;;;;;;;;;5048544;28;20050;-84
2022/12/25 14:41:03;;;;;;;0.20;0.10;;;;;;;;;;5046712;28;20033;-84
2022/12/25 14:43:29;;;;;;;0.20;0.10;;;;;;;;;;5030660;28;20055;-85
2022/12/25 14:45:57;;;;;;;0.20;0.10;;;;;;;;;;5038851;28;20047;-83
2022/12/25 14:48:25;;;;;;;0.20;0.10;;;;;;;;;;5052465;28;20550;-84
2022/12/25 14:51:01;;;;;;;0.20;0.10;;;;;;;;;;5036009;28;20048;-83
2022/12/25 14:53:39;;;;;;;0.20;0.10;;;;;;;;;;5048937;28;21970;-83
2022/12/25 14:56:06;;;;;;;0.20;0.20;;;;;;;;;;5051583;28;20124;-83
2022/12/25 14:58:41;;;;;;;0.20;0.10;;;;;;;;;;5050780;28;20644;-84
2022/12/25 15:01:07;;;;;;;0.20;0.10;;;;;;;;;;5049237;28;20492;-84
2022/12/25 15:03:50;;;;;;;0.20;0.10;;;;;;;;;;5083070;22;20051;-85
2022/12/25 15:06:51;;;;;;;0.20;0.10;;;;;;;;;;5109924;27;20044;-85
2022/12/25 15:09:28;;;;;;;0.20;0.10;;;;;;;;;;5085849;27;20050;-86
2022/12/25 15:12:04;;;;;;;0.20;0.10;;;;;;;;;;5096492;27;20053;-84
2022/12/25 15:14:35;;;;;;;0.20;0.10;;;;;;;;;;5092588;27;20382;-84
2022/12/25 15:17:04;;;;;;;0.20;0.10;;;;;;;;;;5117538;27;20039;-86
2022/12/25 15:19:39;;;;;;;0.20;0.10;;;;;;;;;;5104978;27;20046;-86
2022/12/25 15:22:32;;;;;;;0.20;0.10;;;;;;;;;;5083680;27;20044;-86
2022/12/25 15:25:31;;;;;;;;;;;;;;;;;;;;;
2022/12/25 15:27:58;;;;;;;0.45;0.45;;;;;;;;;;5092334;27;20031;-86
2022/12/25 15:30:24;;;;;;;0.20;0.10;;;;;;;;;;5078573;27;20039;-85
2022/12/25 15:32:53;;;;;;;0.20;0.10;;;;;;;;;;5089749;27;20040;-84
2022/12/25 15:35:19;;;;;;;0.20;0.10;;;;;;;;;;5116313;27;20039;-86
2022/12/25 15:37:45;;;;;;;0.20;0.10;;;;;;;;;;5095449;27;20101;-85
2022/12/25 15:40:12;;;;;;;0.20;0.10;;;;;;;;;;5117801;27;20035;-85
2022/12/25 15:42:38;;;;;;;0.30;0.30;;;;;;;;;;5100224;27;20493;-84
2022/12/25 15:45:05;;;;;;;0.20;0.10;;;;;;;;;;5099707;27;20118;-85
2022/12/25 15:47:32;;;;;;;0.20;0.10;;;;;;;;;;5085249;27;20668;-85
2022/12/25 15:49:58;;;;;;;0.20;0.10;;;;;;;;;;5089654;27;20107;-86
2022/12/25 15:52:24;;;;;;;0.20;0.10;;;;;;;;;;5115153;27;20063;-85
2022/12/25 15:54:50;;;;;;;0.20;0.10;;;;;;;;;;5084033;27;20039;-84
2022/12/25 15:57:19;;;;;;;0.20;0.10;;;;;;;;;;5086167;27;20046;-85
2022/12/25 15:59:45;;;;;;;0.20;0.10;;;;;;;;;;5099967;27;20043;-85
2022/12/25 16:02:18;;;;;;;0.20;0.10;;;;;;;;;;5079379;27;20172;-86
2022/12/25 16:04:45;;;;;;;0.20;0.10;;;;;;;;;;5105231;27;20158;-85
2022/12/25 16:07:15;;;;;;;0.20;0.10;;;;;;;;;;5098996;27;20039;-85
2022/12/25 16:09:41;;;;;;;0.20;0.10;;;;;;;;;;5097871;27;20035;-86
2022/12/25 16:12:07;;;;;;;0.20;0.10;;;;;;;;;;5102065;27;20043;-86
2022/12/25 16:14:33;;;;;;;0.20;0.10;;;;;;;;;;5096778;27;20378;-86
2022/12/25 16:16:59;;;;;;;0.20;0.10;;;;;;;;;;5096737;27;20054;-87
2022/12/25 16:19:25;;;;;;;0.20;0.10;;;;;;;;;;5102140;27;20079;-86
2022/12/25 16:21:51;;;;;;;0.20;0.10;;;;;;;;;;5095929;27;20088;-86
2022/12/25 16:24:17;;;;;;;0.20;0.10;;;;;;;;;;5101520;27;20119;-86
2022/12/25 16:26:43;;;;;;;0.20;0.10;;;;;;;;;;5102048;27;20039;-87
2022/12/25 16:29:10;;;;;;;0.20;0.10;;;;;;;;;;5112484;27;20099;-86
2022/12/25 16:31:36;;;;;;;0.20;0.10;;;;;;;;;;5120017;27;20066;-86
2022/12/25 16:34:03;;;;;;;0.20;0.10;;;;;;;;;;5079347;27;20130;-85
2022/12/25 16:36:29;;;;;;;0.20;0.10;;;;;;;;;;5100649;27;21697;-86
2022/12/25 16:38:55;;;;;;;0.20;0.10;;;;;;;;;;5084357;27;20039;-86
2022/12/25 16:41:21;;;;;;;0.20;0.10;;;;;;;;;;5101453;27;20489;-86
2022/12/25 16:43:47;;;;;;;0.20;0.10;;;;;;;;;;5082817;27;20391;-86
2022/12/25 16:46:15;;;;;;;0.20;0.10;;;;;;;;;;5084099;27;20038;-85
2022/12/25 16:48:47;;;;;;;0.20;0.10;;;;;;;;;;5087165;27;20035;-85
2022/12/25 16:51:13;;;;;;;;;;;;;;;;;;5114348;27;20126;-85
2022/12/25 16:53:42;;;;;;;0.20;0.10;;;;;;;;;;5105091;27;19931;-85
2022/12/25 16:56:15;;;;;;;0.20;0.10;;;;;;;;;;5097132;27;20039;-85
2022/12/25 16:58:45;;;;;;;0.20;0.10;;;;;;;;;;5081335;27;20039;-86
2022/12/25 17:01:14;;;;;;;0.20;0.10;;;;;;;;;;5080594;27;20028;-85
2022/12/25 17:03:43;;;;;;;0.20;0.10;;;;;;;;;;5079424;27;20083;-85
2022/12/25 17:06:21;;;;;;;0.20;0.20;;;;;;;;;;5101629;27;20027;-85
2022/12/25 17:08:50;;;;;;;0.20;0.10;;;;;;;;;;5098179;27;20401;-85
2022/12/25 17:11:19;;;;;;;0.73;0.73;;;;;;;;;;5096711;27;20051;-85